• Join FlightAware (Why Join?)
  • Login
  • US Flag 
03:13AM EDT


 

Airport Tracker/Info


-or-


 

Live Flight TrackerFlight Track Log ✈ N275MC ✈ 16-Mar-2014 ✈ KGON - KDXR

Flight Track Log - Related Links

Times and Time Zones

All times are in EDT time to prevent confusion due to time zone crossing. See the N275MC flight status page for this flight to view local times or setup timezone preferences in your user account.

Time Position Orientation Groundspeed Altitude Reporting Facility
EDT Latitude Longitude Course Direction KTS MPH feet Rate Location/Type
01:49PM 41.3381 -72.0728 256° West 78 90 600  Level Boston Center
01:51PM 41.3294 -72.1197 256° West 80 92 1,800 780 Climbing Boston Center
01:51PM 41.3294 -72.1242 270° West 86 99 1,800 360 Level Boston Center
01:52PM 41.3197 -72.1514 245° Southwest 92 106 2,200 480 Climbing Boston Center
01:52PM 41.3181 -72.1572 249° West 95 109 2,300 540 Climbing Boston Center
01:53PM 41.3036 -72.1814 231° Southwest 92 106 2,800 420 Climbing Boston Center
01:54PM 41.2894 -72.2097 236° Southwest 91 105 3,200 360 Climbing Boston Center
01:54PM 41.2886 -72.2083 129° Southeast 90 104 3,200 600 Level Boston Center
01:55PM 41.2767 -72.2394 243° Southwest 90 104 3,800 540 Climbing Boston Center
01:55PM 41.2767 -72.2383 90° East 91 105 3,800 540 Level Boston Center
01:56PM 41.2681 -72.2703 250° West 91 105 4,400 360 Climbing Boston Center
01:57PM 41.2600 -72.3044 253° West 95 109 4,600 60 Climbing Boston Center
01:58PM 41.2514 -72.3417 253° West 103 119 4,600  Level Boston Center
01:59PM 41.2458 -72.3803 259° West 106 122 4,600 -60 Level Boston Center
02:00PM 41.2389 -72.4167 256° West 105 121 4,500 -60 Descending Boston Center
02:01PM 41.2347 -72.4525 261° West 102 117 4,500 -60 Level Boston Center
02:02PM 41.2303 -72.4942 262° West 98 113 4,400 -60 Descending Boston Center
02:03PM 41.2256 -72.5278 259° West 96 110 4,400  Level Boston Center
02:04PM 41.2228 -72.5608 264° West 93 107 4,400  Level Boston Center
02:05PM 41.2239 -72.5947 273° West 92 106 4,400  Level Boston Center
02:06PM 41.2247 -72.6292 272° West 93 107 4,400  Level Boston Center
02:07PM 41.2278 -72.6647 277° West 95 109 4,500  Climbing Boston Center
02:08PM 41.2347 -72.7019 284° West 99 114 4,500 -60 Level Boston Center
02:09PM 41.2400 -72.7425 280° West 106 122 4,400 -60 Descending Boston Center
02:10PM 41.2469 -72.7856 282° West 103 119 4,400  Level Boston Center
02:11PM 41.2511 -72.8214 279° West 100 115 4,500  Climbing Boston Center
02:12PM 41.2397 -72.8572 247° West 104 120 4,500  Level Boston Center
02:13PM 41.2333 -72.8833 252° West 106 122 4,500  Level New York TRACON
02:14PM 41.2167 -72.9167 236° Southwest 108 124 4,500 -60 Level New York TRACON
02:15PM 41.2000 -72.9500 236° Southwest 118 136 4,400 -60 Descending New York TRACON
02:16PM 41.1833 -72.9833 236° Southwest 110 127 4,400  Level New York TRACON
02:17PM 41.1833 -73.0333 270° West 107 123 4,400  Level New York TRACON
02:18PM 41.1667 -73.0667 236° Southwest 107 123 4,400  Level New York TRACON
02:19PM 41.1667 -73.1000 270° West 106 122 4,500  Climbing New York TRACON
02:20PM 41.1667 -73.1333 270° West 107 123 4,500  Level New York TRACON
02:21PM 41.1833 -73.1667 304° West 106 122 4,500  Level New York TRACON
02:22PM 41.2000 -73.2000 304° West 113 130 4,500 -60 Level New York TRACON
02:23PM 41.2333 -73.2333 323° Northwest 103 119 4,400 -60 Descending New York TRACON
02:24PM 41.2500 -73.2500 323° Northwest 102 117 4,400 -240 Level New York TRACON
02:25PM 41.2739 -73.2939 306° West 98 113 3,900 -420 Descending Boston Center
02:26PM 41.2911 -73.3300 302° West 97 112 3,400 -360 Descending Boston Center
02:27PM 41.2947 -73.3644 278° West 94 108 3,200 -240 Descending Boston Center
02:29PM 41.3111 -73.3911 309° West 92 106 3,000 -420 Descending Boston Center
02:30PM 41.3228 -73.4231 296° West 94 108 2,400 -780 Descending Boston Center
02:31PM 41.3350 -73.4558 296° West 96 110 1,500 -780 Descending Boston Center
02:32PM 41.3575 -73.4736 329° Northwest 92 106 900 -600 Descending Boston Center